createdAt,value
2023-08-29T00:00:00.000Z,4.04
2023-08-29T00:15:00.000Z,4.05
2023-08-29T00:30:00.000Z,4.04
2023-08-29T00:45:00.000Z,4.05
2023-08-29T01:00:00.000Z,4.01
2023-08-29T01:15:00.000Z,4.04
2023-08-29T01:30:00.000Z,4.01
2023-08-29T01:45:00.000Z,4.05
2023-08-29T02:00:00.000Z,4.01
2023-08-29T02:15:00.000Z,4.01
2023-08-29T02:30:00.000Z,4.01
2023-08-29T02:45:00.000Z,4.02
2023-08-29T03:00:00.000Z,4.02
2023-08-29T03:15:00.000Z,4.09
2023-08-29T03:30:00.000Z,4.01
2023-08-29T03:45:00.000Z,4.04
2023-08-29T04:00:00.000Z,4.06
2023-08-29T04:15:00.000Z,4.11
2023-08-29T04:30:00.000Z,4.01
2023-08-29T04:45:00.000Z,4.14
2023-08-29T05:00:00.000Z,4.04
2023-08-29T05:15:00.000Z,4.05
2023-08-29T05:30:00.000Z,4.06
2023-08-29T05:45:00.000Z,4
2023-08-29T06:00:00.000Z,4.04
2023-08-29T06:15:00.000Z,4.05
2023-08-29T06:30:00.000Z,4.02
2023-08-29T06:45:00.000Z,4.08
2023-08-29T07:00:00.000Z,4.66
2023-08-29T07:15:00.000Z,4.01
2023-08-29T07:30:00.000Z,4.08
2023-08-29T07:45:00.000Z,4.01
2023-08-29T08:00:00.000Z,4.65
2023-08-29T08:15:00.000Z,4.71
2023-08-29T08:30:00.000Z,4.89
2023-08-29T08:45:00.000Z,4.44
2023-08-29T09:00:00.000Z,4.25
2023-08-29T09:15:00.000Z,4.62
2023-08-29T09:30:00.000Z,4.06
2023-08-29T09:45:00.000Z,6.09
2023-08-29T10:00:00.000Z,7.15
2023-08-29T10:15:00.000Z,4.08
2023-08-29T10:30:00.000Z,4.18
2023-08-29T10:45:00.000Z,4.59
2023-08-29T11:00:00.000Z,4.18
2023-08-29T11:30:00.000Z,5.27
2023-08-29T11:45:00.000Z,4.94
2023-08-29T12:00:00.000Z,4.12
2023-08-29T12:15:00.000Z,4.6
2023-08-29T12:30:00.000Z,4.12
2023-08-29T12:45:00.000Z,4.18
2023-08-29T13:00:00.000Z,5.52
2023-08-29T13:15:00.000Z,4.87
2023-08-29T13:30:00.000Z,4.2
2023-08-29T13:45:00.000Z,4.2
2023-08-29T14:00:00.000Z,4.4
2023-08-29T14:15:00.000Z,4.08
2023-08-29T14:30:00.000Z,4.94
2023-08-29T14:45:00.000Z,4.22
2023-08-29T15:00:00.000Z,4.24
2023-08-29T15:15:00.000Z,4.13
2023-08-29T15:30:00.000Z,4.46
2023-08-29T15:45:00.000Z,4.52
2023-08-29T16:00:00.000Z,4.46
2023-08-29T16:15:00.000Z,5.94
2023-08-29T16:30:00.000Z,6.89
2023-08-29T16:45:00.000Z,7.32
2023-08-29T17:00:00.000Z,4.76
2023-08-29T17:15:00.000Z,5.53
2023-08-29T17:30:00.000Z,4.93
2023-08-29T17:45:00.000Z,7.32
2023-08-29T18:00:00.000Z,5.58
2023-08-29T18:15:00.000Z,4.34
2023-08-29T18:30:00.000Z,5.89
2023-08-29T18:45:00.000Z,9.26
2023-08-29T19:00:00.000Z,10.47
2023-08-29T19:15:00.000Z,8.35
2023-08-29T19:30:00.000Z,10.6
2023-08-29T19:45:00.000Z,4.92
2023-08-29T20:00:00.000Z,4.87
2023-08-29T20:15:00.000Z,9.52
2023-08-29T20:30:00.000Z,11.66
2023-08-29T20:45:00.000Z,16.36
2023-08-29T21:00:00.000Z,11.26
2023-08-29T21:15:00.000Z,12.19
2023-08-29T21:30:00.000Z,8.71
2023-08-29T21:45:00.000Z,6.93
2023-08-29T22:00:00.000Z,6.64
2023-08-29T22:15:00.000Z,6.75
2023-08-29T22:30:00.000Z,6.85
2023-08-29T22:45:00.000Z,7.13
2023-08-29T23:00:00.000Z,7.24
2023-08-29T23:15:00.000Z,7.31
2023-08-29T23:30:00.000Z,7.15
2023-08-29T23:45:00.000Z,7.22
